sensor_id;sensor_type;location;lat;lon;timestamp;P1;durP1;ratioP1;P2;durP2;ratioP2
60700;SDS011;46541;49.894;10.886;2022-12-26T00:00:35;6.43;;;4.55;;
60700;SDS011;46541;49.894;10.886;2022-12-26T00:03:02;8.23;;;4.15;;
60700;SDS011;46541;49.894;10.886;2022-12-26T00:05:33;8.18;;;4.05;;
60700;SDS011;46541;49.894;10.886;2022-12-26T00:08:02;5.57;;;3.90;;
60700;SDS011;46541;49.894;10.886;2022-12-26T00:10:29;8.25;;;4.85;;
60700;SDS011;46541;49.894;10.886;2022-12-26T00:12:56;5.70;;;3.85;;
60700;SDS011;46541;49.894;10.886;2022-12-26T00:18:09;6.18;;;3.95;;
60700;SDS011;46541;49.894;10.886;2022-12-26T00:20:36;7.45;;;4.35;;
60700;SDS011;46541;49.894;10.886;2022-12-26T00:23:03;5.97;;;3.97;;
60700;SDS011;46541;49.894;10.886;2022-12-26T00:25:29;5.10;;;3.70;;
60700;SDS011;46541;49.894;10.886;2022-12-26T00:27:59;5.28;;;3.47;;
60700;SDS011;46541;49.894;10.886;2022-12-26T00:30:26;4.97;;;3.40;;
60700;SDS011;46541;49.894;10.886;2022-12-26T00:32:53;5.15;;;3.80;;
60700;SDS011;46541;49.894;10.886;2022-12-26T00:35:20;5.45;;;3.08;;
60700;SDS011;46541;49.894;10.886;2022-12-26T00:37:47;6.97;;;3.90;;
60700;SDS011;46541;49.894;10.886;2022-12-26T00:40:13;5.22;;;3.80;;
60700;SDS011;46541;49.894;10.886;2022-12-26T00:42:40;5.72;;;4.05;;
60700;SDS011;46541;49.894;10.886;2022-12-26T00:45:07;8.55;;;3.97;;
60700;SDS011;46541;49.894;10.886;2022-12-26T00:47:34;5.90;;;3.60;;
60700;SDS011;46541;49.894;10.886;2022-12-26T00:50:01;6.07;;;3.70;;
60700;SDS011;46541;49.894;10.886;2022-12-26T00:52:40;4.63;;;3.38;;
60700;SDS011;46541;49.894;10.886;2022-12-26T00:55:07;7.07;;;3.70;;
60700;SDS011;46541;49.894;10.886;2022-12-26T00:57:34;7.25;;;3.88;;
60700;SDS011;46541;49.894;10.886;2022-12-26T01:00:01;5.50;;;3.80;;
60700;SDS011;46541;49.894;10.886;2022-12-26T01:02:28;6.45;;;3.50;;
60700;SDS011;46541;49.894;10.886;2022-12-26T01:05:06;5.18;;;3.35;;
60700;SDS011;46541;49.894;10.886;2022-12-26T01:07:38;6.57;;;3.67;;
60700;SDS011;46541;49.894;10.886;2022-12-26T01:10:25;8.80;;;3.60;;
60700;SDS011;46541;49.894;10.886;2022-12-26T01:12:52;6.82;;;3.17;;
60700;SDS011;46541;49.894;10.886;2022-12-26T01:15:19;7.68;;;3.35;;
60700;SDS011;46541;49.894;10.886;2022-12-26T01:17:46;6.57;;;3.10;;
60700;SDS011;46541;49.894;10.886;2022-12-26T01:20:13;4.85;;;2.85;;
60700;SDS011;46541;49.894;10.886;2022-12-26T01:22:40;7.20;;;3.38;;
60700;SDS011;46541;49.894;10.886;2022-12-26T01:25:07;4.05;;;3.17;;
60700;SDS011;46541;49.894;10.886;2022-12-26T01:27:34;4.45;;;2.67;;
60700;SDS011;46541;49.894;10.886;2022-12-26T01:30:01;7.57;;;3.22;;
60700;SDS011;46541;49.894;10.886;2022-12-26T01:32:28;4.57;;;3.05;;
60700;SDS011;46541;49.894;10.886;2022-12-26T01:34:54;3.70;;;2.85;;
60700;SDS011;46541;49.894;10.886;2022-12-26T01:37:21;4.20;;;3.22;;
60700;SDS011;46541;49.894;10.886;2022-12-26T01:39:48;11.43;;;3.30;;
60700;SDS011;46541;49.894;10.886;2022-12-26T01:42:17;5.50;;;2.88;;
60700;SDS011;46541;49.894;10.886;2022-12-26T01:45:05;6.18;;;2.75;;
60700;SDS011;46541;49.894;10.886;2022-12-26T01:50:05;3.58;;;2.75;;
60700;SDS011;46541;49.894;10.886;2022-12-26T01:52:39;3.95;;;2.70;;
60700;SDS011;46541;49.894;10.886;2022-12-26T01:55:10;5.18;;;2.80;;
60700;SDS011;46541;49.894;10.886;2022-12-26T01:57:43;3.67;;;2.70;;
60700;SDS011;46541;49.894;10.886;2022-12-26T02:00:15;4.07;;;2.80;;
60700;SDS011;46541;49.894;10.886;2022-12-26T02:02:42;4.57;;;2.75;;
60700;SDS011;46541;49.894;10.886;2022-12-26T02:05:28;4.97;;;2.33;;
60700;SDS011;46541;49.894;10.886;2022-12-26T02:08:20;4.70;;;2.35;;
60700;SDS011;46541;49.894;10.886;2022-12-26T02:11:32;4.03;;;2.65;;
60700;SDS011;46541;49.894;10.886;2022-12-26T02:13:41;4.13;;;2.75;;
60700;SDS011;46541;49.894;10.886;2022-12-26T02:16:10;3.38;;;2.50;;
60700;SDS011;46541;49.894;10.886;2022-12-26T02:18:39;4.00;;;2.72;;
60700;SDS011;46541;49.894;10.886;2022-12-26T02:35:50;4.93;;;2.42;;
60700;SDS011;46541;49.894;10.886;2022-12-26T02:38:40;2.38;;;2.03;;
60700;SDS011;46541;49.894;10.886;2022-12-26T02:53:04;3.80;;;2.50;;
60700;SDS011;46541;49.894;10.886;2022-12-26T02:55:58;5.50;;;2.83;;
60700;SDS011;46541;49.894;10.886;2022-12-26T02:58:54;5.05;;;2.53;;
60700;SDS011;46541;49.894;10.886;2022-12-26T03:02:06;5.13;;;3.00;;
60700;SDS011;46541;49.894;10.886;2022-12-26T03:05:03;3.95;;;2.30;;
60700;SDS011;46541;49.894;10.886;2022-12-26T03:08:11;4.70;;;2.47;;
60700;SDS011;46541;49.894;10.886;2022-12-26T03:11:02;3.35;;;2.33;;
60700;SDS011;46541;49.894;10.886;2022-12-26T03:13:48;5.67;;;2.80;;
60700;SDS011;46541;49.894;10.886;2022-12-26T03:16:16;3.10;;;2.78;;
60700;SDS011;46541;49.894;10.886;2022-12-26T03:19:05;3.85;;;2.60;;
60700;SDS011;46541;49.894;10.886;2022-12-26T03:21:37;3.05;;;2.33;;
60700;SDS011;46541;49.894;10.886;2022-12-26T03:24:10;4.13;;;2.70;;
60700;SDS011;46541;49.894;10.886;2022-12-26T03:26:41;4.53;;;2.65;;
60700;SDS011;46541;49.894;10.886;2022-12-26T03:29:14;4.13;;;2.50;;
60700;SDS011;46541;49.894;10.886;2022-12-26T03:32:03;5.65;;;2.72;;
60700;SDS011;46541;49.894;10.886;2022-12-26T03:34:36;4.32;;;2.60;;
60700;SDS011;46541;49.894;10.886;2022-12-26T03:37:26;3.58;;;2.60;;
60700;SDS011;46541;49.894;10.886;2022-12-26T03:43:44;4.13;;;2.67;;
60700;SDS011;46541;49.894;10.886;2022-12-26T03:50:14;4.88;;;2.50;;
60700;SDS011;46541;49.894;10.886;2022-12-26T03:53:19;3.38;;;2.20;;
60700;SDS011;46541;49.894;10.886;2022-12-26T03:56:13;3.42;;;2.47;;
60700;SDS011;46541;49.894;10.886;2022-12-26T03:59:15;4.88;;;2.35;;
60700;SDS011;46541;49.894;10.886;2022-12-26T04:02:07;2.65;;;2.00;;
60700;SDS011;46541;49.894;10.886;2022-12-26T04:04:56;5.15;;;3.22;;
60700;SDS011;46541;49.894;10.886;2022-12-26T04:07:48;5.22;;;2.63;;
60700;SDS011;46541;49.894;10.886;2022-12-26T04:10:46;3.85;;;2.60;;
60700;SDS011;46541;49.894;10.886;2022-12-26T04:17:11;4.15;;;2.65;;
60700;SDS011;46541;49.894;10.886;2022-12-26T04:26:11;2.88;;;2.25;;
60700;SDS011;46541;49.894;10.886;2022-12-26T04:29:05;4.82;;;2.67;;
60700;SDS011;46541;49.894;10.886;2022-12-26T04:35:17;4.00;;;2.25;;
60700;SDS011;46541;49.894;10.886;2022-12-26T04:38:09;3.05;;;2.17;;
60700;SDS011;46541;49.894;10.886;2022-12-26T04:41:00;3.47;;;2.15;;
60700;SDS011;46541;49.894;10.886;2022-12-26T04:43:46;3.92;;;2.70;;
60700;SDS011;46541;49.894;10.886;2022-12-26T04:46:34;6.70;;;2.35;;
60700;SDS011;46541;49.894;10.886;2022-12-26T04:49:05;3.97;;;2.28;;
60700;SDS011;46541;49.894;10.886;2022-12-26T04:51:54;4.50;;;2.20;;
60700;SDS011;46541;49.894;10.886;2022-12-26T04:54:22;4.30;;;2.60;;
60700;SDS011;46541;49.894;10.886;2022-12-26T04:56:49;5.85;;;2.58;;
60700;SDS011;46541;49.894;10.886;2022-12-26T04:59:16;2.90;;;2.42;;
60700;SDS011;46541;49.894;10.886;2022-12-26T05:01:45;2.78;;;2.17;;
60700;SDS011;46541;49.894;10.886;2022-12-26T05:04:31;3.72;;;2.15;;
60700;SDS011;46541;49.894;10.886;2022-12-26T05:10:04;4.05;;;2.28;;
60700;SDS011;46541;49.894;10.886;2022-12-26T05:12:33;3.95;;;2.58;;
60700;SDS011;46541;49.894;10.886;2022-12-26T05:15:00;3.05;;;2.03;;
60700;SDS011;46541;49.894;10.886;2022-12-26T05:17:27;4.38;;;2.40;;
60700;SDS011;46541;49.894;10.886;2022-12-26T05:20:12;3.33;;;2.50;;
60700;SDS011;46541;49.894;10.886;2022-12-26T05:22:58;5.43;;;2.83;;
60700;SDS011;46541;49.894;10.886;2022-12-26T05:25:45;4.25;;;2.67;;
60700;SDS011;46541;49.894;10.886;2022-12-26T05:28:32;4.47;;;2.72;;
60700;SDS011;46541;49.894;10.886;2022-12-26T05:31:09;6.38;;;2.85;;
60700;SDS011;46541;49.894;10.886;2022-12-26T05:33:41;2.83;;;2.55;;
60700;SDS011;46541;49.894;10.886;2022-12-26T05:36:28;2.92;;;2.20;;
60700;SDS011;46541;49.894;10.886;2022-12-26T05:38:58;4.18;;;2.70;;
60700;SDS011;46541;49.894;10.886;2022-12-26T05:41:25;2.83;;;2.15;;
60700;SDS011;46541;49.894;10.886;2022-12-26T05:43:52;2.72;;;1.88;;
60700;SDS011;46541;49.894;10.886;2022-12-26T05:46:19;5.45;;;2.50;;
60700;SDS011;46541;49.894;10.886;2022-12-26T05:48:46;3.95;;;2.45;;
60700;SDS011;46541;49.894;10.886;2022-12-26T05:51:13;5.57;;;2.42;;
60700;SDS011;46541;49.894;10.886;2022-12-26T05:53:39;2.92;;;2.10;;
60700;SDS011;46541;49.894;10.886;2022-12-26T05:56:08;6.30;;;2.50;;
60700;SDS011;46541;49.894;10.886;2022-12-26T05:58:37;4.70;;;3.05;;
60700;SDS011;46541;49.894;10.886;2022-12-26T06:01:14;5.63;;;3.08;;
60700;SDS011;46541;49.894;10.886;2022-12-26T06:03:47;4.68;;;2.80;;
60700;SDS011;46541;49.894;10.886;2022-12-26T06:06:15;5.60;;;2.50;;
60700;SDS011;46541;49.894;10.886;2022-12-26T06:08:43;4.32;;;2.70;;
60700;SDS011;46541;49.894;10.886;2022-12-26T06:11:14;5.10;;;2.53;;
60700;SDS011;46541;49.894;10.886;2022-12-26T06:13:42;6.10;;;2.60;;
60700;SDS011;46541;49.894;10.886;2022-12-26T06:16:13;5.18;;;2.33;;
60700;SDS011;46541;49.894;10.886;2022-12-26T06:18:41;4.80;;;2.75;;
60700;SDS011;46541;49.894;10.886;2022-12-26T06:21:09;7.75;;;3.25;;
60700;SDS011;46541;49.894;10.886;2022-12-26T06:23:37;3.72;;;2.90;;
60700;SDS011;46541;49.894;10.886;2022-12-26T06:26:05;5.60;;;2.67;;
60700;SDS011;46541;49.894;10.886;2022-12-26T06:28:34;3.78;;;2.85;;
60700;SDS011;46541;49.894;10.886;2022-12-26T06:31:05;3.55;;;2.55;;
60700;SDS011;46541;49.894;10.886;2022-12-26T06:33:34;4.93;;;2.85;;
60700;SDS011;46541;49.894;10.886;2022-12-26T06:36:08;2.65;;;2.33;;
60700;SDS011;46541;49.894;10.886;2022-12-26T06:38:38;8.05;;;2.72;;
60700;SDS011;46541;49.894;10.886;2022-12-26T06:41:05;3.95;;;2.45;;
60700;SDS011;46541;49.894;10.886;2022-12-26T06:43:33;4.47;;;2.90;;
60700;SDS011;46541;49.894;10.886;2022-12-26T06:46:01;5.45;;;3.03;;
60700;SDS011;46541;49.894;10.886;2022-12-26T06:48:30;7.25;;;3.20;;
60700;SDS011;46541;49.894;10.886;2022-12-26T06:50:57;5.35;;;2.70;;
60700;SDS011;46541;49.894;10.886;2022-12-26T06:53:27;6.30;;;3.05;;
60700;SDS011;46541;49.894;10.886;2022-12-26T06:55:54;3.80;;;2.53;;
60700;SDS011;46541;49.894;10.886;2022-12-26T06:58:30;4.20;;;2.60;;
60700;SDS011;46541;49.894;10.886;2022-12-26T07:01:02;6.20;;;3.17;;
60700;SDS011;46541;49.894;10.886;2022-12-26T07:03:33;7.18;;;3.25;;
60700;SDS011;46541;49.894;10.886;2022-12-26T07:06:01;3.90;;;2.60;;
60700;SDS011;46541;49.894;10.886;2022-12-26T07:08:32;5.28;;;2.50;;
60700;SDS011;46541;49.894;10.886;2022-12-26T07:10:59;3.90;;;2.92;;
60700;SDS011;46541;49.894;10.886;2022-12-26T07:13:26;5.10;;;2.70;;
60700;SDS011;46541;49.894;10.886;2022-12-26T07:15:54;5.35;;;2.70;;
60700;SDS011;46541;49.894;10.886;2022-12-26T07:18:23;4.65;;;3.10;;
60700;SDS011;46541;49.894;10.886;2022-12-26T07:20:50;3.90;;;2.88;;
60700;SDS011;46541;49.894;10.886;2022-12-26T07:23:17;3.30;;;2.72;;
60700;SDS011;46541;49.894;10.886;2022-12-26T07:25:45;4.43;;;3.10;;
60700;SDS011;46541;49.894;10.886;2022-12-26T07:28:14;6.90;;;3.65;;
60700;SDS011;46541;49.894;10.886;2022-12-26T07:30:47;5.35;;;3.10;;
60700;SDS011;46541;49.894;10.886;2022-12-26T07:33:15;3.63;;;2.75;;
60700;SDS011;46541;49.894;10.886;2022-12-26T07:35:42;12.98;;;7.88;;
60700;SDS011;46541;49.894;10.886;2022-12-26T07:38:09;8.13;;;4.90;;
60700;SDS011;46541;49.894;10.886;2022-12-26T07:40:37;5.68;;;3.53;;
60700;SDS011;46541;49.894;10.886;2022-12-26T07:43:03;4.65;;;3.10;;
60700;SDS011;46541;49.894;10.886;2022-12-26T07:45:30;6.00;;;3.38;;
60700;SDS011;46541;49.894;10.886;2022-12-26T07:47:57;5.00;;;3.20;;
60700;SDS011;46541;49.894;10.886;2022-12-26T07:50:24;4.25;;;3.47;;
60700;SDS011;46541;49.894;10.886;2022-12-26T07:52:52;4.85;;;2.83;;
60700;SDS011;46541;49.894;10.886;2022-12-26T07:55:20;4.53;;;3.10;;
60700;SDS011;46541;49.894;10.886;2022-12-26T07:57:50;3.92;;;2.95;;
60700;SDS011;46541;49.894;10.886;2022-12-26T08:00:18;6.25;;;3.30;;
60700;SDS011;46541;49.894;10.886;2022-12-26T08:02:48;4.80;;;2.53;;
60700;SDS011;46541;49.894;10.886;2022-12-26T08:05:16;4.63;;;2.85;;
60700;SDS011;46541;49.894;10.886;2022-12-26T08:07:45;4.63;;;3.63;;
60700;SDS011;46541;49.894;10.886;2022-12-26T08:10:14;6.95;;;3.60;;
60700;SDS011;46541;49.894;10.886;2022-12-26T08:12:41;5.28;;;3.45;;
60700;SDS011;46541;49.894;10.886;2022-12-26T08:15:10;7.63;;;3.35;;
60700;SDS011;46541;49.894;10.886;2022-12-26T08:17:37;9.00;;;3.85;;
60700;SDS011;46541;49.894;10.886;2022-12-26T08:20:04;7.40;;;3.50;;
60700;SDS011;46541;49.894;10.886;2022-12-26T08:22:32;6.32;;;3.67;;
60700;SDS011;46541;49.894;10.886;2022-12-26T08:24:58;18.35;;;13.18;;
60700;SDS011;46541;49.894;10.886;2022-12-26T08:27:25;14.65;;;11.25;;
60700;SDS011;46541;49.894;10.886;2022-12-26T08:29:52;11.75;;;7.35;;
60700;SDS011;46541;49.894;10.886;2022-12-26T08:32:19;7.65;;;5.28;;
60700;SDS011;46541;49.894;10.886;2022-12-26T08:34:45;6.80;;;5.20;;
60700;SDS011;46541;49.894;10.886;2022-12-26T08:37:12;4.45;;;3.33;;
60700;SDS011;46541;49.894;10.886;2022-12-26T08:39:39;5.13;;;3.00;;
60700;SDS011;46541;49.894;10.886;2022-12-26T08:42:06;5.85;;;3.72;;
60700;SDS011;46541;49.894;10.886;2022-12-26T08:44:32;8.63;;;5.93;;
60700;SDS011;46541;49.894;10.886;2022-12-26T08:46:59;7.25;;;4.53;;
60700;SDS011;46541;49.894;10.886;2022-12-26T08:49:26;16.25;;;8.55;;
60700;SDS011;46541;49.894;10.886;2022-12-26T08:51:53;18.17;;;9.27;;
60700;SDS011;46541;49.894;10.886;2022-12-26T08:54:19;13.27;;;6.30;;
60700;SDS011;46541;49.894;10.886;2022-12-26T08:56:46;7.30;;;4.40;;
60700;SDS011;46541;49.894;10.886;2022-12-26T08:59:13;8.98;;;4.40;;
60700;SDS011;46541;49.894;10.886;2022-12-26T09:01:40;6.95;;;3.97;;
60700;SDS011;46541;49.894;10.886;2022-12-26T09:04:07;5.28;;;3.35;;
60700;SDS011;46541;49.894;10.886;2022-12-26T09:06:34;9.45;;;3.65;;
60700;SDS011;46541;49.894;10.886;2022-12-26T09:09:03;6.45;;;3.38;;
60700;SDS011;46541;49.894;10.886;2022-12-26T09:11:31;5.97;;;4.47;;
60700;SDS011;46541;49.894;10.886;2022-12-26T09:13:59;10.82;;;3.30;;
60700;SDS011;46541;49.894;10.886;2022-12-26T09:16:28;7.55;;;2.80;;
60700;SDS011;46541;49.894;10.886;2022-12-26T09:19:08;5.75;;;2.83;;
60700;SDS011;46541;49.894;10.886;2022-12-26T09:21:40;5.68;;;3.35;;
60700;SDS011;46541;49.894;10.886;2022-12-26T09:24:09;5.05;;;2.60;;
60700;SDS011;46541;49.894;10.886;2022-12-26T09:26:37;4.55;;;2.85;;
60700;SDS011;46541;49.894;10.886;2022-12-26T09:29:04;5.50;;;2.80;;
60700;SDS011;46541;49.894;10.886;2022-12-26T09:31:32;5.38;;;3.15;;
60700;SDS011;46541;49.894;10.886;2022-12-26T09:34:01;5.38;;;3.90;;
60700;SDS011;46541;49.894;10.886;2022-12-26T09:36:33;4.55;;;2.90;;
60700;SDS011;46541;49.894;10.886;2022-12-26T09:39:03;7.38;;;3.10;;
60700;SDS011;46541;49.894;10.886;2022-12-26T09:47:32;3.72;;;3.13;;
60700;SDS011;46541;49.894;10.886;2022-12-26T09:50:08;6.47;;;4.07;;
60700;SDS011;46541;49.894;10.886;2022-12-26T09:52:52;6.68;;;3.22;;
60700;SDS011;46541;49.894;10.886;2022-12-26T09:55:28;6.63;;;3.63;;
60700;SDS011;46541;49.894;10.886;2022-12-26T09:58:12;11.25;;;5.50;;
60700;SDS011;46541;49.894;10.886;2022-12-26T10:00:51;6.05;;;3.35;;
60700;SDS011;46541;49.894;10.886;2022-12-26T10:03:40;4.97;;;2.90;;
60700;SDS011;46541;49.894;10.886;2022-12-26T10:06:11;5.45;;;3.22;;
60700;SDS011;46541;49.894;10.886;2022-12-26T10:09:28;6.32;;;3.42;;
60700;SDS011;46541;49.894;10.886;2022-12-26T10:17:10;5.28;;;3.08;;
60700;SDS011;46541;49.894;10.886;2022-12-26T10:20:12;5.25;;;2.88;;
60700;SDS011;46541;49.894;10.886;2022-12-26T10:25:46;7.00;;;2.78;;
60700;SDS011;46541;49.894;10.886;2022-12-26T10:28:32;4.15;;;2.58;;
60700;SDS011;46541;49.894;10.886;2022-12-26T10:33:55;3.60;;;2.60;;
60700;SDS011;46541;49.894;10.886;2022-12-26T10:36:34;5.07;;;2.88;;
60700;SDS011;46541;49.894;10.886;2022-12-26T10:41:44;4.45;;;3.30;;
60700;SDS011;46541;49.894;10.886;2022-12-26T10:44:13;7.32;;;4.28;;
60700;SDS011;46541;49.894;10.886;2022-12-26T10:49:31;5.82;;;4.28;;
60700;SDS011;46541;49.894;10.886;2022-12-26T10:52:00;5.05;;;3.70;;
60700;SDS011;46541;49.894;10.886;2022-12-26T10:54:28;8.75;;;3.58;;
60700;SDS011;46541;49.894;10.886;2022-12-26T10:56:56;6.03;;;3.28;;
60700;SDS011;46541;49.894;10.886;2022-12-26T11:02:19;4.85;;;2.90;;
60700;SDS011;46541;49.894;10.886;2022-12-26T11:07:56;4.75;;;2.95;;
60700;SDS011;46541;49.894;10.886;2022-12-26T11:10:33;4.03;;;2.55;;
60700;SDS011;46541;49.894;10.886;2022-12-26T11:13:01;5.85;;;3.42;;
60700;SDS011;46541;49.894;10.886;2022-12-26T11:18:26;5.45;;;3.17;;
60700;SDS011;46541;49.894;10.886;2022-12-26T11:23:45;4.93;;;2.70;;
60700;SDS011;46541;49.894;10.886;2022-12-26T11:26:31;4.20;;;2.80;;
60700;SDS011;46541;49.894;10.886;2022-12-26T11:29:17;4.57;;;2.78;;
60700;SDS011;46541;49.894;10.886;2022-12-26T11:31:55;3.90;;;2.58;;
60700;SDS011;46541;49.894;10.886;2022-12-26T11:34:37;4.35;;;2.38;;
60700;SDS011;46541;49.894;10.886;2022-12-26T11:37:22;4.18;;;2.70;;
60700;SDS011;46541;49.894;10.886;2022-12-26T11:39:49;3.53;;;2.40;;
60700;SDS011;46541;49.894;10.886;2022-12-26T11:42:18;5.97;;;2.45;;
60700;SDS011;46541;49.894;10.886;2022-12-26T11:44:47;3.85;;;2.70;;
60700;SDS011;46541;49.894;10.886;2022-12-26T11:47:35;6.30;;;3.28;;
60700;SDS011;46541;49.894;10.886;2022-12-26T11:50:04;3.95;;;2.15;;
60700;SDS011;46541;49.894;10.886;2022-12-26T11:52:39;3.47;;;2.55;;
60700;SDS011;46541;49.894;10.886;2022-12-26T12:00:32;2.97;;;1.85;;
60700;SDS011;46541;49.894;10.886;2022-12-26T12:03:01;4.43;;;2.85;;
60700;SDS011;46541;49.894;10.886;2022-12-26T12:05:51;12.50;;;4.70;;
60700;SDS011;46541;49.894;10.886;2022-12-26T12:11:24;7.35;;;4.90;;
60700;SDS011;46541;49.894;10.886;2022-12-26T12:14:11;4.18;;;2.67;;
60700;SDS011;46541;49.894;10.886;2022-12-26T12:20:11;3.97;;;2.92;;
60700;SDS011;46541;49.894;10.886;2022-12-26T12:25:48;5.00;;;3.00;;
60700;SDS011;46541;49.894;10.886;2022-12-26T12:28:27;5.97;;;2.00;;
60700;SDS011;46541;49.894;10.886;2022-12-26T12:31:23;2.45;;;2.17;;
60700;SDS011;46541;49.894;10.886;2022-12-26T12:34:13;1.30;;;1.08;;
60700;SDS011;46541;49.894;10.886;2022-12-26T12:42:24;3.80;;;1.20;;
60700;SDS011;46541;49.894;10.886;2022-12-26T12:50:07;3.22;;;1.33;;
60700;SDS011;46541;49.894;10.886;2022-12-26T12:58:50;1.73;;;1.45;;
60700;SDS011;46541;49.894;10.886;2022-12-26T13:01:45;3.72;;;2.40;;
60700;SDS011;46541;49.894;10.886;2022-12-26T13:04:37;2.90;;;2.17;;
60700;SDS011;46541;49.894;10.886;2022-12-26T13:07:12;3.78;;;2.95;;
60700;SDS011;46541;49.894;10.886;2022-12-26T13:09:47;5.63;;;3.00;;
60700;SDS011;46541;49.894;10.886;2022-12-26T13:12:25;2.63;;;1.85;;
60700;SDS011;46541;49.894;10.886;2022-12-26T13:18:02;4.28;;;3.13;;
60700;SDS011;46541;49.894;10.886;2022-12-26T13:21:04;4.15;;;2.22;;
60700;SDS011;46541;49.894;10.886;2022-12-26T13:23:38;4.97;;;3.63;;
60700;SDS011;46541;49.894;10.886;2022-12-26T13:26:29;2.85;;;2.38;;
60700;SDS011;46541;49.894;10.886;2022-12-26T13:31:59;1.83;;;1.35;;
60700;SDS011;46541;49.894;10.886;2022-12-26T13:34:27;4.82;;;2.15;;
60700;SDS011;46541;49.894;10.886;2022-12-26T13:36:54;3.33;;;1.65;;
60700;SDS011;46541;49.894;10.886;2022-12-26T13:44:47;4.53;;;2.30;;
60700;SDS011;46541;49.894;10.886;2022-12-26T13:58:52;4.22;;;2.33;;
60700;SDS011;46541;49.894;10.886;2022-12-26T14:09:42;3.75;;;2.10;;
60700;SDS011;46541;49.894;10.886;2022-12-26T14:15:15;3.22;;;1.30;;
60700;SDS011;46541;49.894;10.886;2022-12-26T14:20:46;2.35;;;1.40;;
60700;SDS011;46541;49.894;10.886;2022-12-26T14:44:04;3.03;;;1.60;;
60700;SDS011;46541;49.894;10.886;2022-12-26T14:54:52;4.03;;;2.10;;
60700;SDS011;46541;49.894;10.886;2022-12-26T15:05:27;2.67;;;1.90;;
60700;SDS011;46541;49.894;10.886;2022-12-26T15:11:12;3.83;;;2.83;;
60700;SDS011;46541;49.894;10.886;2022-12-26T15:21:36;7.97;;;4.57;;
60700;SDS011;46541;49.894;10.886;2022-12-26T15:33:39;3.88;;;2.25;;
60700;SDS011;46541;49.894;10.886;2022-12-26T15:36:21;2.92;;;2.45;;
60700;SDS011;46541;49.894;10.886;2022-12-26T15:39:15;4.47;;;2.10;;
60700;SDS011;46541;49.894;10.886;2022-12-26T15:41:45;4.18;;;2.17;;
60700;SDS011;46541;49.894;10.886;2022-12-26T15:44:22;2.97;;;1.92;;
60700;SDS011;46541;49.894;10.886;2022-12-26T15:57:33;3.42;;;2.20;;
60700;SDS011;46541;49.894;10.886;2022-12-26T16:02:43;3.65;;;2.40;;
60700;SDS011;46541;49.894;10.886;2022-12-26T16:07:54;3.95;;;2.28;;
60700;SDS011;46541;49.894;10.886;2022-12-26T16:10:47;3.78;;;2.30;;
60700;SDS011;46541;49.894;10.886;2022-12-26T16:13:21;4.45;;;2.53;;
60700;SDS011;46541;49.894;10.886;2022-12-26T16:15:49;3.22;;;2.25;;
60700;SDS011;46541;49.894;10.886;2022-12-26T16:20:54;3.65;;;2.15;;
60700;SDS011;46541;49.894;10.886;2022-12-26T16:23:43;6.60;;;3.88;;
60700;SDS011;46541;49.894;10.886;2022-12-26T16:26:22;4.50;;;2.33;;
60700;SDS011;46541;49.894;10.886;2022-12-26T16:28:51;3.88;;;2.03;;
60700;SDS011;46541;49.894;10.886;2022-12-26T16:31:20;4.35;;;2.92;;
60700;SDS011;46541;49.894;10.886;2022-12-26T16:33:52;7.07;;;4.10;;
60700;SDS011;46541;49.894;10.886;2022-12-26T16:36:23;3.67;;;2.40;;
60700;SDS011;46541;49.894;10.886;2022-12-26T16:38:53;3.00;;;1.80;;
60700;SDS011;46541;49.894;10.886;2022-12-26T16:43:52;4.25;;;2.58;;
60700;SDS011;46541;49.894;10.886;2022-12-26T16:46:20;1.65;;;1.33;;
60700;SDS011;46541;49.894;10.886;2022-12-26T16:48:55;2.05;;;1.35;;
60700;SDS011;46541;49.894;10.886;2022-12-26T16:56:48;2.92;;;2.00;;
60700;SDS011;46541;49.894;10.886;2022-12-26T16:59:18;2.88;;;1.77;;
60700;SDS011;46541;49.894;10.886;2022-12-26T17:01:56;5.18;;;2.20;;
60700;SDS011;46541;49.894;10.886;2022-12-26T17:04:26;3.50;;;2.37;;
60700;SDS011;46541;49.894;10.886;2022-12-26T17:09:29;3.63;;;2.63;;
60700;SDS011;46541;49.894;10.886;2022-12-26T17:12:50;3.88;;;2.25;;
60700;SDS011;46541;49.894;10.886;2022-12-26T17:15:19;2.30;;;1.67;;
60700;SDS011;46541;49.894;10.886;2022-12-26T17:17:49;1.90;;;1.60;;
60700;SDS011;46541;49.894;10.886;2022-12-26T17:22:49;2.45;;;1.90;;
60700;SDS011;46541;49.894;10.886;2022-12-26T17:25:30;2.65;;;2.05;;
60700;SDS011;46541;49.894;10.886;2022-12-26T17:30:35;2.28;;;1.65;;
60700;SDS011;46541;49.894;10.886;2022-12-26T17:33:14;2.55;;;1.60;;
60700;SDS011;46541;49.894;10.886;2022-12-26T17:35:43;3.67;;;2.25;;
60700;SDS011;46541;49.894;10.886;2022-12-26T17:38:37;2.63;;;1.77;;
60700;SDS011;46541;49.894;10.886;2022-12-26T17:41:05;2.08;;;1.60;;
60700;SDS011;46541;49.894;10.886;2022-12-26T17:43:34;2.55;;;1.67;;
60700;SDS011;46541;49.894;10.886;2022-12-26T17:46:04;2.65;;;1.63;;
60700;SDS011;46541;49.894;10.886;2022-12-26T17:48:32;3.30;;;2.22;;
60700;SDS011;46541;49.894;10.886;2022-12-26T17:51:00;2.53;;;2.00;;
60700;SDS011;46541;49.894;10.886;2022-12-26T17:53:39;4.20;;;1.98;;
60700;SDS011;46541;49.894;10.886;2022-12-26T17:56:09;3.15;;;1.83;;
60700;SDS011;46541;49.894;10.886;2022-12-26T17:58:40;3.20;;;1.90;;
60700;SDS011;46541;49.894;10.886;2022-12-26T18:01:07;1.70;;;1.35;;
60700;SDS011;46541;49.894;10.886;2022-12-26T18:03:34;3.15;;;1.90;;
60700;SDS011;46541;49.894;10.886;2022-12-26T18:06:00;22.55;;;9.20;;
60700;SDS011;46541;49.894;10.886;2022-12-26T18:08:32;5.78;;;2.35;;
60700;SDS011;46541;49.894;10.886;2022-12-26T18:11:06;2.38;;;1.50;;
60700;SDS011;46541;49.894;10.886;2022-12-26T18:13:35;3.00;;;2.15;;
60700;SDS011;46541;49.894;10.886;2022-12-26T18:16:02;4.43;;;1.80;;
60700;SDS011;46541;49.894;10.886;2022-12-26T18:18:33;3.13;;;0.77;;
60700;SDS011;46541;49.894;10.886;2022-12-26T18:21:02;5.93;;;1.38;;
60700;SDS011;46541;49.894;10.886;2022-12-26T18:23:31;2.30;;;0.95;;
60700;SDS011;46541;49.894;10.886;2022-12-26T18:25:58;3.63;;;0.73;;
60700;SDS011;46541;49.894;10.886;2022-12-26T18:28:27;0.55;;;0.50;;
60700;SDS011;46541;49.894;10.886;2022-12-26T18:30:54;1.63;;;1.00;;
60700;SDS011;46541;49.894;10.886;2022-12-26T18:33:23;0.60;;;0.50;;
60700;SDS011;46541;49.894;10.886;2022-12-26T18:35:50;1.23;;;0.60;;
60700;SDS011;46541;49.894;10.886;2022-12-26T18:38:18;0.80;;;0.55;;
60700;SDS011;46541;49.894;10.886;2022-12-26T18:40:47;1.25;;;0.90;;
60700;SDS011;46541;49.894;10.886;2022-12-26T18:43:15;1.20;;;0.95;;
60700;SDS011;46541;49.894;10.886;2022-12-26T18:45:43;2.10;;;1.25;;
60700;SDS011;46541;49.894;10.886;2022-12-26T18:48:12;1.98;;;1.05;;
60700;SDS011;46541;49.894;10.886;2022-12-26T18:50:40;3.30;;;1.80;;
60700;SDS011;46541;49.894;10.886;2022-12-26T18:53:08;2.40;;;1.40;;
60700;SDS011;46541;49.894;10.886;2022-12-26T18:55:36;2.03;;;1.40;;
60700;SDS011;46541;49.894;10.886;2022-12-26T18:58:03;1.38;;;0.93;;
60700;SDS011;46541;49.894;10.886;2022-12-26T19:00:30;1.13;;;0.80;;
60700;SDS011;46541;49.894;10.886;2022-12-26T19:02:58;2.78;;;0.95;;
60700;SDS011;46541;49.894;10.886;2022-12-26T19:05:26;1.65;;;0.73;;
60700;SDS011;46541;49.894;10.886;2022-12-26T19:07:56;2.25;;;0.80;;
60700;SDS011;46541;49.894;10.886;2022-12-26T19:10:26;1.20;;;0.65;;
60700;SDS011;46541;49.894;10.886;2022-12-26T19:12:56;2.72;;;0.90;;
60700;SDS011;46541;49.894;10.886;2022-12-26T19:15:30;0.98;;;0.60;;
60700;SDS011;46541;49.894;10.886;2022-12-26T19:17:59;0.50;;;0.40;;
60700;SDS011;46541;49.894;10.886;2022-12-26T19:20:26;0.65;;;0.45;;